createdAt,value
2019-03-25T00:00:01.972Z,97.71
2019-03-25T00:02:36.547Z,97.79
2019-03-25T00:05:09.258Z,97.87
2019-03-25T00:07:42.211Z,97.77
2019-03-25T00:10:14.604Z,97.50
2019-03-25T00:12:47.157Z,97.19
2019-03-25T00:15:20.481Z,97.12
2019-03-25T00:17:53.081Z,96.64
2019-03-25T00:20:25.904Z,96.22
2019-03-25T00:22:58.225Z,95.73
2019-03-25T00:25:30.928Z,94.83
2019-03-25T00:28:03.486Z,94.39
2019-03-25T00:30:35.403Z,94.41
2019-03-25T00:33:10.073Z,94.33
2019-03-25T00:35:44.132Z,94.45
2019-03-25T00:38:16.560Z,94.35
2019-03-25T00:40:50.261Z,94.06
2019-03-25T00:43:23.394Z,93.99
2019-03-25T00:45:57.469Z,94.07
2019-03-25T00:48:29.386Z,93.78
2019-03-25T00:51:02.499Z,93.78
2019-03-25T00:53:35.622Z,93.83
2019-03-25T00:56:07.799Z,93.60
2019-03-25T00:58:41.519Z,92.92
2019-03-25T01:01:16.039Z,92.80
2019-03-25T01:03:47.889Z,93.02
2019-03-25T01:06:20.355Z,93.11
2019-03-25T01:08:53.349Z,93.24
2019-03-25T01:11:26.518Z,93.34
2019-03-25T01:13:58.413Z,93.33
2019-03-25T01:16:31.378Z,93.55
2019-03-25T01:19:05.482Z,93.57
2019-03-25T01:21:38.477Z,93.62
2019-03-25T01:24:11.559Z,93.70
2019-03-25T01:26:44.607Z,93.86
2019-03-25T01:29:16.608Z,93.93
2019-03-25T01:31:49.398Z,93.81
2019-03-25T01:34:22.615Z,93.67
2019-03-25T01:36:56.607Z,93.51
2019-03-25T01:39:28.500Z,93.55
2019-03-25T01:42:02.640Z,93.33
2019-03-25T01:44:35.592Z,92.88
2019-03-25T01:47:08.520Z,92.53
2019-03-25T01:49:41.971Z,92.19
2019-03-25T01:52:15.700Z,91.60
2019-03-25T01:54:49.663Z,91.60
2019-03-25T01:57:22.580Z,92.03
2019-03-25T01:59:57.154Z,92.24
2019-03-25T02:02:31.689Z,92.16
2019-03-25T02:05:05.970Z,92.05
2019-03-25T02:07:40.625Z,92.02
2019-03-25T02:10:14.212Z,92.03
2019-03-25T02:12:46.741Z,92.17
2019-03-25T02:15:19.807Z,92.08
2019-03-25T02:17:52.689Z,92.05
2019-03-25T02:20:26.988Z,91.08
2019-03-25T02:23:00.931Z,90.78
2019-03-25T02:25:34.816Z,90.41
2019-03-25T02:28:08.739Z,90.46
2019-03-25T02:30:40.637Z,90.14
2019-03-25T02:33:13.896Z,89.63
2019-03-25T02:35:46.676Z,89.68
2019-03-25T02:38:20.757Z,89.39
2019-03-25T02:40:52.780Z,88.85
2019-03-25T02:43:25.725Z,87.93
2019-03-25T02:45:59.833Z,87.66
2019-03-25T02:48:32.858Z,86.85
2019-03-25T02:51:07.260Z,86.35
2019-03-25T02:53:40.793Z,86.79
2019-03-25T02:56:13.742Z,86.64
2019-03-25T02:58:47.725Z,87.02
2019-03-25T03:01:20.007Z,88.35
2019-03-25T03:03:53.938Z,88.35
2019-03-25T03:06:25.760Z,88.42
2019-03-25T03:08:57.853Z,88.87
2019-03-25T03:11:31.968Z,88.70
2019-03-25T03:14:05.861Z,88.52
2019-03-25T03:16:37.798Z,88.54
2019-03-25T03:19:11.117Z,89.15
2019-03-25T03:21:44.139Z,89.16
2019-03-25T03:24:17.181Z,89.59
2019-03-25T03:26:51.111Z,89.81
2019-03-25T03:29:22.986Z,89.42
2019-03-25T03:31:55.855Z,89.72
2019-03-25T03:34:27.662Z,89.60
2019-03-25T03:37:03.303Z,88.99
2019-03-25T03:39:35.573Z,89.15
2019-03-25T03:42:09.493Z,89.51
2019-03-25T03:44:43.630Z,89.98
2019-03-25T03:47:17.231Z,90.27
2019-03-25T03:49:51.573Z,90.22
2019-03-25T03:52:26.431Z,89.18
2019-03-25T03:55:00.014Z,89.29
2019-03-25T03:57:33.281Z,89.17
2019-03-25T04:00:07.269Z,89.70
2019-03-25T04:02:41.349Z,89.90
2019-03-25T04:05:14.449Z,90.33
2019-03-25T04:07:48.519Z,90.14
2019-03-25T04:10:20.611Z,90.81
2019-03-25T04:12:53.626Z,90.85
2019-03-25T04:15:30.808Z,90.90
2019-03-25T04:18:03.696Z,90.53
2019-03-25T04:20:38.530Z,90.51
2019-03-25T04:23:14.375Z,90.77
2019-03-25T04:25:47.575Z,90.99
2019-03-25T04:28:20.704Z,91.00
2019-03-25T04:30:54.510Z,90.92
2019-03-25T04:33:28.670Z,90.86
2019-03-25T04:36:02.720Z,91.33
2019-03-25T04:38:35.663Z,91.34
2019-03-25T04:41:09.888Z,91.49
2019-03-25T04:43:47.382Z,91.25
2019-03-25T04:46:23.683Z,91.52
2019-03-25T04:48:56.936Z,90.89
2019-03-25T04:51:34.096Z,90.66
2019-03-25T04:54:16.017Z,90.85
2019-03-25T04:56:49.620Z,91.21
2019-03-25T04:59:23.705Z,91.49
2019-03-25T05:01:56.890Z,91.72
2019-03-25T05:04:29.881Z,91.62
2019-03-25T05:07:04.235Z,91.91
2019-03-25T05:09:46.243Z,90.94
2019-03-25T05:12:23.580Z,90.29
2019-03-25T05:14:59.011Z,90.20
2019-03-25T05:17:37.675Z,90.70
2019-03-25T05:20:17.936Z,91.04
2019-03-25T05:22:58.720Z,91.25
2019-03-25T05:25:35.665Z,91.33
2019-03-25T05:28:12.339Z,91.56
2019-03-25T05:30:52.884Z,91.35
2019-03-25T05:33:28.822Z,91.27
2019-03-25T05:36:04.265Z,91.41
2019-03-25T05:38:39.851Z,90.96
2019-03-25T05:41:14.268Z,91.13
2019-03-25T05:44:01.387Z,90.38
2019-03-25T05:46:35.314Z,89.83
2019-03-25T05:49:08.889Z,90.05
2019-03-25T05:51:46.269Z,90.10
2019-03-25T05:54:24.933Z,90.09
2019-03-25T05:57:03.138Z,90.65
2019-03-25T05:59:36.649Z,90.30
2019-03-25T06:02:10.710Z,90.07
2019-03-25T06:04:51.627Z,90.07
2019-03-25T06:07:35.757Z,89.47
2019-03-25T06:10:11.621Z,90.26
2019-03-25T06:12:50.640Z,90.27
2019-03-25T06:15:34.719Z,90.27
2019-03-25T06:18:21.992Z,90.42
2019-03-25T06:20:58.641Z,90.89
2019-03-25T06:23:33.708Z,90.89
2019-03-25T06:26:13.171Z,90.93
2019-03-25T06:28:48.508Z,90.72
2019-03-25T06:31:24.654Z,90.59
2019-03-25T06:33:58.237Z,90.25
2019-03-25T06:36:36.945Z,89.08
2019-03-25T06:39:13.802Z,88.57
2019-03-25T06:41:47.306Z,88.51
2019-03-25T06:44:20.417Z,89.08
2019-03-25T06:46:55.672Z,89.20
2019-03-25T06:49:31.545Z,89.94
2019-03-25T06:52:07.922Z,89.23
2019-03-25T06:54:45.099Z,89.23
2019-03-25T06:57:25.144Z,89.74
2019-03-25T06:59:53.716Z,90.42
2019-03-25T07:02:30.232Z,90.42
2019-03-25T07:05:03.593Z,90.03
2019-03-25T07:07:37.462Z,89.50
2019-03-25T07:10:13.423Z,89.77
2019-03-25T07:12:50.682Z,89.39
2019-03-25T07:15:27.209Z,89.28
2019-03-25T07:17:59.228Z,89.79
2019-03-25T07:20:32.306Z,90.90
2019-03-25T07:23:06.865Z,90.61
2019-03-25T07:25:44.103Z,90.81
2019-03-25T07:28:16.596Z,91.60
2019-03-25T07:30:51.489Z,91.96
2019-03-25T07:33:36.104Z,92.07
2019-03-25T07:36:07.954Z,92.46
2019-03-25T07:38:42.952Z,92.77
2019-03-25T07:41:17.186Z,92.43
2019-03-25T07:43:53.449Z,91.97
2019-03-25T07:46:26.657Z,91.39
2019-03-25T07:49:02.977Z,92.86
2019-03-25T07:51:38.444Z,93.07
2019-03-25T07:54:10.684Z,93.38
2019-03-25T07:56:47.259Z,93.15
2019-03-25T07:59:21.565Z,91.64
2019-03-25T08:01:55.624Z,91.20
2019-03-25T08:04:29.522Z,90.04
2019-03-25T08:07:05.472Z,90.09
2019-03-25T08:09:39.295Z,90.01
2019-03-25T08:12:13.585Z,89.36
2019-03-25T08:14:49.705Z,90.03
2019-03-25T08:17:25.512Z,90.86
2019-03-25T08:19:59.630Z,91.47
2019-03-25T08:22:34.251Z,92.49
2019-03-25T08:25:08.977Z,92.64
2019-03-25T08:27:44.913Z,93.33
2019-03-25T08:30:20.373Z,94.30
2019-03-25T08:32:56.243Z,94.42
2019-03-25T08:35:33.218Z,93.31
2019-03-25T08:38:07.519Z,93.08
2019-03-25T08:40:43.109Z,93.13
2019-03-25T08:43:19.571Z,93.13
2019-03-25T08:45:56.065Z,93.01
2019-03-25T08:48:30.978Z,92.87
2019-03-25T08:51:03.728Z,92.11
2019-03-25T08:53:36.656Z,90.89
2019-03-25T08:56:10.863Z,90.82
2019-03-25T08:58:46.531Z,91.04
2019-03-25T09:01:21.168Z,89.40
2019-03-25T09:03:55.805Z,89.40
2019-03-25T09:06:31.276Z,89.38
2019-03-25T09:09:06.706Z,88.85
2019-03-25T09:11:43.791Z,88.15
2019-03-25T09:14:17.242Z,87.27
2019-03-25T09:16:51.996Z,85.03
2019-03-25T09:19:27.744Z,84.83
2019-03-25T09:22:01.168Z,85.28
2019-03-25T09:24:37.684Z,85.34
2019-03-25T09:27:12.328Z,85.73
2019-03-25T09:29:48.886Z,84.71
2019-03-25T09:32:24.073Z,84.34
2019-03-25T09:34:59.158Z,82.49
2019-03-25T09:37:31.778Z,80.38
2019-03-25T09:40:08.817Z,78.56
2019-03-25T09:42:42.064Z,77.84
2019-03-25T09:45:18.839Z,78.09
2019-03-25T09:47:53.367Z,76.16
2019-03-25T09:50:27.992Z,75.52
2019-03-25T09:53:02.200Z,73.10
2019-03-25T09:55:43.475Z,74.78
2019-03-25T09:58:19.251Z,74.73
2019-03-25T10:00:52.235Z,73.81
2019-03-25T10:03:26.240Z,73.81
2019-03-25T10:06:01.799Z,73.44
2019-03-25T10:08:35.847Z,73.90
2019-03-25T10:11:09.068Z,73.74
2019-03-25T10:13:43.821Z,71.40
2019-03-25T10:16:19.099Z,71.85
2019-03-25T10:18:53.588Z,73.78
2019-03-25T10:21:30.528Z,71.53
2019-03-25T10:24:03.206Z,67.26
2019-03-25T10:26:39.434Z,65.47
2019-03-25T10:29:15.049Z,62.23
2019-03-25T10:31:49.647Z,61.35
2019-03-25T10:34:23.860Z,60.38
2019-03-25T10:37:00.419Z,58.43
2019-03-25T10:39:38.369Z,59.94
2019-03-25T10:42:13.448Z,58.30
2019-03-25T10:44:46.213Z,57.71
2019-03-25T10:47:20.644Z,59.44
2019-03-25T10:49:55.959Z,56.54
2019-03-25T10:52:30.736Z,57.61
2019-03-25T10:55:03.621Z,54.05
2019-03-25T10:57:40.278Z,52.71
2019-03-25T11:00:13.618Z,54.25
2019-03-25T11:02:47.449Z,53.42
2019-03-25T11:05:20.434Z,53.89
2019-03-25T11:07:56.662Z,54.59
2019-03-25T11:10:30.322Z,53.38
2019-03-25T11:13:05.271Z,53.76
2019-03-25T11:15:42.292Z,51.60
2019-03-25T11:18:15.926Z,50.18
2019-03-25T11:20:50.874Z,50.89
2019-03-25T11:23:25.398Z,51.08
2019-03-25T11:25:58.249Z,51.15
2019-03-25T11:28:39.363Z,51.30
2019-03-25T11:31:12.634Z,49.91
2019-03-25T11:33:49.624Z,48.84
2019-03-25T11:36:23.590Z,49.45
2019-03-25T11:38:57.536Z,46.65
2019-03-25T11:41:34.796Z,46.19
2019-03-25T11:44:10.390Z,46.77
2019-03-25T11:46:47.655Z,43.03
2019-03-25T11:49:25.500Z,41.58
2019-03-25T11:52:02.637Z,42.19
2019-03-25T11:54:34.491Z,42.88
2019-03-25T11:57:08.109Z,43.05
2019-03-25T11:59:42.934Z,41.66
2019-03-25T12:02:17.713Z,41.66
2019-03-25T12:04:52.813Z,44.22
2019-03-25T12:07:26.718Z,44.21
2019-03-25T12:10:01.133Z,45.78
2019-03-25T12:12:35.811Z,41.66
2019-03-25T12:15:09.718Z,41.88
2019-03-25T12:17:44.127Z,41.40
2019-03-25T12:20:18.580Z,41.23
2019-03-25T12:22:53.080Z,39.43
2019-03-25T12:25:26.759Z,40.75
2019-03-25T12:28:01.258Z,39.28
2019-03-25T12:30:35.795Z,38.49
2019-03-25T12:33:09.698Z,37.85
2019-03-25T12:35:41.921Z,38.90
2019-03-25T12:38:15.165Z,36.41
2019-03-25T12:40:48.217Z,38.66
2019-03-25T12:43:22.636Z,38.02
2019-03-25T12:45:56.868Z,36.34
2019-03-25T12:48:31.421Z,37.41
2019-03-25T12:51:08.127Z,37.42
2019-03-25T12:53:48.338Z,36.93
2019-03-25T12:56:22.837Z,37.85
2019-03-25T12:58:55.766Z,36.52
2019-03-25T13:01:29.185Z,36.67
2019-03-25T13:04:05.647Z,37.78
2019-03-25T13:06:41.915Z,37.78
2019-03-25T13:09:16.529Z,36.97
2019-03-25T13:11:49.152Z,37.26
2019-03-25T13:14:23.935Z,38.65
2019-03-25T13:16:57.956Z,40.07
2019-03-25T13:19:31.941Z,37.11
2019-03-25T13:22:06.364Z,39.15
2019-03-25T13:24:52.594Z,37.77
2019-03-25T13:27:27.805Z,37.77
2019-03-25T13:30:00.146Z,38.05
2019-03-25T13:32:35.099Z,38.00
2019-03-25T13:35:09.771Z,38.52
2019-03-25T13:37:47.130Z,39.04
2019-03-25T13:40:22.245Z,41.01
2019-03-25T13:43:00.880Z,40.04
2019-03-25T13:45:35.242Z,38.96
2019-03-25T13:48:07.195Z,39.44
2019-03-25T13:50:42.905Z,39.50
2019-03-25T13:53:16.706Z,40.10
2019-03-25T13:55:49.371Z,40.66
2019-03-25T13:58:25.752Z,40.97
2019-03-25T14:01:00.419Z,41.36
2019-03-25T14:03:36.539Z,39.32
2019-03-25T14:06:13.430Z,39.32
2019-03-25T14:08:48.233Z,39.98
2019-03-25T14:11:22.623Z,40.82
2019-03-25T14:13:57.195Z,41.38
2019-03-25T14:16:31.533Z,40.62
2019-03-25T14:19:13.000Z,40.49
2019-03-25T14:21:45.609Z,41.10
2019-03-25T14:24:21.633Z,41.83
2019-03-25T14:26:55.217Z,42.34
2019-03-25T14:29:27.286Z,41.55
2019-03-25T14:32:00.288Z,41.38
2019-03-25T14:34:44.217Z,40.56
2019-03-25T14:37:09.786Z,41.14
2019-03-25T14:39:46.204Z,42.56
2019-03-25T14:42:18.191Z,42.86
2019-03-25T14:44:51.420Z,42.73
2019-03-25T14:47:25.093Z,43.71
2019-03-25T14:49:57.836Z,40.99
2019-03-25T14:52:30.545Z,42.62
2019-03-25T14:55:04.482Z,43.22
2019-03-25T14:57:37.548Z,44.02
2019-03-25T15:00:24.705Z,44.09
2019-03-25T15:02:50.457Z,42.04
2019-03-25T15:05:25.459Z,43.87
2019-03-25T15:07:59.647Z,44.80
2019-03-25T15:10:36.974Z,45.28
2019-03-25T15:13:12.283Z,46.08
2019-03-25T15:15:48.601Z,45.85
2019-03-25T15:18:32.617Z,46.24
2019-03-25T15:21:15.800Z,45.49
2019-03-25T15:23:48.543Z,44.96
2019-03-25T15:26:21.904Z,44.86
2019-03-25T15:28:54.491Z,44.30
2019-03-25T15:31:30.300Z,43.41
2019-03-25T15:34:03.862Z,43.17
2019-03-25T15:36:37.494Z,43.38
2019-03-25T15:39:09.966Z,43.67
2019-03-25T15:41:43.637Z,45.07
2019-03-25T15:44:18.218Z,45.52
2019-03-25T15:46:55.873Z,46.65
2019-03-25T15:49:29.196Z,47.37
2019-03-25T15:52:05.749Z,48.62
2019-03-25T15:54:40.330Z,48.69
2019-03-25T15:57:14.561Z,50.47
2019-03-25T15:59:48.619Z,51.49
2019-03-25T16:02:23.486Z,52.44
2019-03-25T16:04:59.148Z,52.25
2019-03-25T16:07:33.760Z,53.67
2019-03-25T16:10:08.299Z,53.39
2019-03-25T16:12:42.733Z,54.50
2019-03-25T16:15:16.479Z,55.84
2019-03-25T16:17:50.038Z,55.67
2019-03-25T16:20:21.914Z,55.43
2019-03-25T16:22:54.725Z,55.97
2019-03-25T16:25:28.951Z,55.70
2019-03-25T16:28:02.213Z,54.34
2019-03-25T16:30:35.885Z,54.72
2019-03-25T16:33:14.549Z,54.55
2019-03-25T16:35:48.605Z,55.48
2019-03-25T16:38:23.632Z,56.80
2019-03-25T16:40:59.450Z,57.10
2019-03-25T16:43:32.857Z,58.52
2019-03-25T16:46:05.062Z,58.32
2019-03-25T16:48:39.911Z,59.35
2019-03-25T16:51:12.779Z,59.91
2019-03-25T16:53:45.041Z,61.08
2019-03-25T16:56:18.027Z,62.06
2019-03-25T16:58:51.821Z,64.10
2019-03-25T17:01:23.983Z,64.55
2019-03-25T17:03:56.960Z,65.61
2019-03-25T17:06:29.913Z,66.24
2019-03-25T17:09:02.899Z,66.97
2019-03-25T17:11:36.874Z,67.73
2019-03-25T17:14:09.508Z,68.40
2019-03-25T17:16:41.819Z,69.81
2019-03-25T17:19:16.139Z,70.54
2019-03-25T17:21:57.665Z,70.50
2019-03-25T17:24:24.674Z,70.73
2019-03-25T17:26:59.071Z,71.40
2019-03-25T17:29:31.188Z,72.02
2019-03-25T17:32:05.070Z,72.92
2019-03-25T17:34:38.234Z,73.60
2019-03-25T17:37:13.427Z,74.18
2019-03-25T17:39:48.629Z,74.99
2019-03-25T17:42:21.216Z,75.85
2019-03-25T17:44:55.309Z,76.50
2019-03-25T17:47:30.760Z,77.13
2019-03-25T17:50:04.346Z,77.44
2019-03-25T17:52:39.025Z,77.95
2019-03-25T17:55:13.080Z,78.16
2019-03-25T17:57:46.110Z,78.89
2019-03-25T18:00:36.118Z,78.89
2019-03-25T18:03:11.219Z,79.44
2019-03-25T18:05:45.276Z,79.96
2019-03-25T18:08:17.896Z,80.59
2019-03-25T18:10:51.676Z,80.24
2019-03-25T18:13:24.299Z,80.54
2019-03-25T18:15:57.288Z,80.91
2019-03-25T18:18:30.229Z,81.29
2019-03-25T18:21:03.166Z,81.17
2019-03-25T18:23:36.265Z,81.65
2019-03-25T18:26:09.576Z,82.01
2019-03-25T18:28:43.582Z,81.83
2019-03-25T18:31:18.160Z,82.25
2019-03-25T18:33:51.261Z,82.23
2019-03-25T18:36:24.366Z,82.25
2019-03-25T18:38:57.755Z,82.51
2019-03-25T18:41:30.356Z,81.70
2019-03-25T18:44:02.291Z,81.98
2019-03-25T18:46:35.751Z,82.08
2019-03-25T18:49:09.551Z,82.15
2019-03-25T18:51:45.458Z,82.59
2019-03-25T18:54:20.500Z,82.48
2019-03-25T18:56:57.754Z,82.93
2019-03-25T18:59:32.400Z,83.13
2019-03-25T19:02:11.456Z,83.19
2019-03-25T19:04:44.755Z,83.29
2019-03-25T19:07:27.520Z,83.32
2019-03-25T19:10:01.965Z,82.83
2019-03-25T19:12:37.612Z,83.11
2019-03-25T19:15:09.871Z,83.07
2019-03-25T19:17:47.074Z,82.93
2019-03-25T19:20:22.405Z,83.22
2019-03-25T19:22:59.793Z,83.65
2019-03-25T19:25:50.213Z,83.38
2019-03-25T19:28:42.248Z,83.83
2019-03-25T19:31:18.734Z,83.92
2019-03-25T19:34:00.043Z,83.88
2019-03-25T19:36:48.832Z,83.86
2019-03-25T19:39:26.183Z,84.18
2019-03-25T19:42:02.902Z,83.69
2019-03-25T19:44:40.696Z,83.02
2019-03-25T19:47:15.049Z,82.90
2019-03-25T19:49:47.016Z,81.98
2019-03-25T19:52:19.167Z,81.78
2019-03-25T19:54:58.770Z,81.98
2019-03-25T19:57:32.921Z,81.01
2019-03-25T20:00:10.144Z,80.99
2019-03-25T20:02:42.883Z,80.35
2019-03-25T20:05:18.953Z,80.53
2019-03-25T20:07:51.842Z,81.09
2019-03-25T20:10:30.965Z,81.90
2019-03-25T20:13:04.066Z,82.18
2019-03-25T20:15:46.144Z,83.12
2019-03-25T20:18:14.026Z,82.92
2019-03-25T20:20:50.526Z,83.42
2019-03-25T20:23:24.940Z,83.64
2019-03-25T20:25:57.849Z,83.60
2019-03-25T20:28:30.878Z,84.47
2019-03-25T20:31:04.985Z,84.17
2019-03-25T20:33:39.777Z,84.12
2019-03-25T20:36:13.868Z,84.07
2019-03-25T20:38:49.301Z,84.58
2019-03-25T20:41:20.159Z,85.32
2019-03-25T20:43:54.949Z,84.82
2019-03-25T20:46:27.292Z,85.14
2019-03-25T20:49:01.494Z,85.56
2019-03-25T20:51:33.995Z,85.70
2019-03-25T20:54:05.965Z,85.45
2019-03-25T20:56:39.893Z,85.45
2019-03-25T20:59:13.128Z,85.72
2019-03-25T21:01:49.621Z,85.44
2019-03-25T21:04:23.927Z,85.68
2019-03-25T21:06:59.638Z,85.40
2019-03-25T21:09:32.621Z,85.78
2019-03-25T21:12:07.741Z,85.84
2019-03-25T21:14:44.414Z,86.12
2019-03-25T21:17:18.136Z,85.94
2019-03-25T21:19:54.486Z,85.43
2019-03-25T21:22:28.193Z,85.40
2019-03-25T21:25:01.244Z,84.97
2019-03-25T21:27:34.209Z,85.17
2019-03-25T21:30:09.013Z,84.99
2019-03-25T21:32:57.262Z,85.04
2019-03-25T21:35:18.554Z,85.29
2019-03-25T21:37:53.779Z,84.67
2019-03-25T21:40:28.182Z,84.76
2019-03-25T21:43:03.049Z,84.93
2019-03-25T21:45:37.191Z,84.66
2019-03-25T21:48:10.198Z,84.47
2019-03-25T21:50:44.126Z,84.83
2019-03-25T21:53:16.202Z,83.91
2019-03-25T21:55:50.870Z,84.17
2019-03-25T21:58:25.122Z,84.00
2019-03-25T22:00:58.224Z,83.31
2019-03-25T22:03:32.654Z,83.42
2019-03-25T22:06:07.446Z,83.62
2019-03-25T22:08:40.276Z,83.26
2019-03-25T22:11:13.470Z,82.48
2019-03-25T22:13:49.846Z,82.74
2019-03-25T22:16:22.233Z,82.56
2019-03-25T22:18:55.300Z,82.14
2019-03-25T22:21:30.486Z,82.33
2019-03-25T22:24:02.396Z,82.03
2019-03-25T22:26:35.122Z,82.39
2019-03-25T22:29:08.117Z,82.30
2019-03-25T22:31:41.194Z,82.16
2019-03-25T22:34:15.524Z,81.75
2019-03-25T22:36:47.376Z,82.08
2019-03-25T22:39:19.377Z,81.75
2019-03-25T22:41:51.630Z,81.97
2019-03-25T22:44:24.388Z,81.74
2019-03-25T22:46:58.012Z,81.41
2019-03-25T22:49:30.391Z,81.48
2019-03-25T22:52:02.494Z,82.07
2019-03-25T22:54:36.565Z,82.08
2019-03-25T22:57:10.103Z,82.13
2019-03-25T22:59:42.510Z,82.52
2019-03-25T23:02:15.489Z,82.14
2019-03-25T23:04:50.284Z,82.01
2019-03-25T23:07:24.546Z,81.99
2019-03-25T23:09:59.345Z,81.76
2019-03-25T23:12:33.928Z,82.05
2019-03-25T23:15:07.784Z,82.42
2019-03-25T23:17:39.567Z,81.66
2019-03-25T23:20:13.452Z,82.11
2019-03-25T23:22:48.321Z,82.56
2019-03-25T23:25:21.541Z,82.74
2019-03-25T23:27:54.648Z,82.63
2019-03-25T23:30:27.530Z,83.14
2019-03-25T23:33:01.606Z,83.51
2019-03-25T23:35:34.585Z,83.03
2019-03-25T23:38:08.543Z,83.49
2019-03-25T23:40:42.655Z,83.95
2019-03-25T23:43:15.105Z,83.69
2019-03-25T23:45:48.619Z,83.65
2019-03-25T23:48:21.591Z,84.34
2019-03-25T23:50:54.698Z,84.64
2019-03-25T23:53:27.636Z,84.42
2019-03-25T23:56:00.762Z,84.64
2019-03-25T23:58:34.631Z,84.78
